sensor_id;sensor_type;location;lat;lon;timestamp;temperature;humidity
80676;SHT30;70041;46.088;18.268;2023-07-08T00:00:47;18.84;70.53
80676;SHT30;70041;46.088;18.268;2023-07-08T00:03:14;18.79;69.82
80676;SHT30;70041;46.088;18.268;2023-07-08T00:05:40;18.82;69.15
80676;SHT30;70041;46.088;18.268;2023-07-08T00:08:17;18.92;68.77
80676;SHT30;70041;46.088;18.268;2023-07-08T00:10:42;18.95;69.59
80676;SHT30;70041;46.088;18.268;2023-07-08T00:13:09;18.89;68.69
80676;SHT30;70041;46.088;18.268;2023-07-08T00:15:35;18.94;68.52
80676;SHT30;70041;46.088;18.268;2023-07-08T00:18:03;18.95;68.93
80676;SHT30;70041;46.088;18.268;2023-07-08T00:20:39;18.89;68.63
80676;SHT30;70041;46.088;18.268;2023-07-08T00:23:05;18.87;68.23
80676;SHT30;70041;46.088;18.268;2023-07-08T00:25:32;18.84;68.23
80676;SHT30;70041;46.088;18.268;2023-07-08T00:27:58;18.78;67.73
80676;SHT30;70041;46.088;18.268;2023-07-08T00:30:26;18.89;67.05
80676;SHT30;70041;46.088;18.268;2023-07-08T00:32:52;18.99;67.73
80676;SHT30;70041;46.088;18.268;2023-07-08T00:35:35;19.02;66.13
80676;SHT30;70041;46.088;18.268;2023-07-08T00:40:49;18.92;66.67
80676;SHT30;70041;46.088;18.268;2023-07-08T00:43:17;18.89;67.85
80676;SHT30;70041;46.088;18.268;2023-07-08T00:45:49;18.85;67.62
80676;SHT30;70041;46.088;18.268;2023-07-08T00:48:28;18.85;67.05
80676;SHT30;70041;46.088;18.268;2023-07-08T00:50:55;18.85;68.66
80676;SHT30;70041;46.088;18.268;2023-07-08T00:53:27;18.82;67.54
80676;SHT30;70041;46.088;18.268;2023-07-08T00:55:57;18.72;67.91
80676;SHT30;70041;46.088;18.268;2023-07-08T00:58:25;18.72;65.06
80676;SHT30;70041;46.088;18.268;2023-07-08T01:00:52;18.76;65.33
80676;SHT30;70041;46.088;18.268;2023-07-08T01:03:19;18.81;66.38
80676;SHT30;70041;46.088;18.268;2023-07-08T01:05:46;18.81;65.05
80676;SHT30;70041;46.088;18.268;2023-07-08T01:08:12;18.84;63.31
80676;SHT30;70041;46.088;18.268;2023-07-08T01:10:50;18.95;61.63
80676;SHT30;70041;46.088;18.268;2023-07-08T01:13:19;18.99;62.69
80676;SHT30;70041;46.088;18.268;2023-07-08T01:15:47;18.99;64.21
80676;SHT30;70041;46.088;18.268;2023-07-08T01:18:15;18.88;63.97
80676;SHT30;70041;46.088;18.268;2023-07-08T01:20:43;18.85;64.19
80676;SHT30;70041;46.088;18.268;2023-07-08T01:23:10;18.78;63.25
80676;SHT30;70041;46.088;18.268;2023-07-08T01:25:37;18.78;64.45
80676;SHT30;70041;46.088;18.268;2023-07-08T01:28:02;18.71;64.83
80676;SHT30;70041;46.088;18.268;2023-07-08T01:30:29;18.61;63.81
80676;SHT30;70041;46.088;18.268;2023-07-08T01:33:01;18.61;62.83
80676;SHT30;70041;46.088;18.268;2023-07-08T01:35:28;18.69;60.10
80676;SHT30;70041;46.088;18.268;2023-07-08T01:37:58;18.76;59.72
80676;SHT30;70041;46.088;18.268;2023-07-08T01:40:25;18.79;60.47
80676;SHT30;70041;46.088;18.268;2023-07-08T01:42:51;18.82;60.09
80676;SHT30;70041;46.088;18.268;2023-07-08T01:45:18;18.82;60.17
80676;SHT30;70041;46.088;18.268;2023-07-08T01:47:53;18.84;60.02
80676;SHT30;70041;46.088;18.268;2023-07-08T01:50:20;18.84;60.16
80676;SHT30;70041;46.088;18.268;2023-07-08T01:52:48;18.85;59.92
80676;SHT30;70041;46.088;18.268;2023-07-08T01:55:15;18.81;62.79
80676;SHT30;70041;46.088;18.268;2023-07-08T01:57:40;18.71;61.19
80676;SHT30;70041;46.088;18.268;2023-07-08T02:00:06;18.62;61.64
80676;SHT30;70041;46.088;18.268;2023-07-08T02:02:32;18.50;61.81
80676;SHT30;70041;46.088;18.268;2023-07-08T02:04:57;18.40;63.80
80676;SHT30;70041;46.088;18.268;2023-07-08T02:07:22;18.38;64.44
80676;SHT30;70041;46.088;18.268;2023-07-08T02:09:48;18.31;64.96
80676;SHT30;70041;46.088;18.268;2023-07-08T02:12:13;18.29;63.78
80676;SHT30;70041;46.088;18.268;2023-07-08T02:14:39;18.27;65.30
80676;SHT30;70041;46.088;18.268;2023-07-08T02:17:04;18.20;64.60
80676;SHT30;70041;46.088;18.268;2023-07-08T02:19:31;18.20;64.24
80676;SHT30;70041;46.088;18.268;2023-07-08T02:21:56;18.23;64.00
80676;SHT30;70041;46.088;18.268;2023-07-08T02:24:21;18.18;64.09
80676;SHT30;70041;46.088;18.268;2023-07-08T02:26:48;18.20;64.81
80676;SHT30;70041;46.088;18.268;2023-07-08T02:29:13;18.09;65.28
80676;SHT30;70041;46.088;18.268;2023-07-08T02:31:39;18.04;64.81
80676;SHT30;70041;46.088;18.268;2023-07-08T02:34:04;18.09;64.95
80676;SHT30;70041;46.088;18.268;2023-07-08T02:36:30;18.09;64.61
80676;SHT30;70041;46.088;18.268;2023-07-08T02:38:55;18.03;65.63
80676;SHT30;70041;46.088;18.268;2023-07-08T02:41:21;18.04;65.32
80676;SHT30;70041;46.088;18.268;2023-07-08T02:43:46;18.04;65.96
80676;SHT30;70041;46.088;18.268;2023-07-08T02:46:12;17.96;66.51
80676;SHT30;70041;46.088;18.268;2023-07-08T02:48:37;17.96;67.12
80676;SHT30;70041;46.088;18.268;2023-07-08T02:51:04;17.93;66.62
80676;SHT30;70041;46.088;18.268;2023-07-08T02:53:30;17.96;65.67
80676;SHT30;70041;46.088;18.268;2023-07-08T02:55:56;18.03;66.80
80676;SHT30;70041;46.088;18.268;2023-07-08T02:58:22;18.03;66.38
80676;SHT30;70041;46.088;18.268;2023-07-08T03:00:54;18.02;66.88
80676;SHT30;70041;46.088;18.268;2023-07-08T03:03:20;18.00;66.83
80676;SHT30;70041;46.088;18.268;2023-07-08T03:05:57;17.99;66.82
80676;SHT30;70041;46.088;18.268;2023-07-08T03:08:24;18.03;66.52
80676;SHT30;70041;46.088;18.268;2023-07-08T03:10:55;18.09;65.81
80676;SHT30;70041;46.088;18.268;2023-07-08T03:13:21;18.17;65.37
80676;SHT30;70041;46.088;18.268;2023-07-08T03:15:47;18.21;66.03
80676;SHT30;70041;46.088;18.268;2023-07-08T03:18:12;18.23;66.25
80676;SHT30;70041;46.088;18.268;2023-07-08T03:20:41;18.30;66.14
80676;SHT30;70041;46.088;18.268;2023-07-08T03:23:06;18.26;66.31
80676;SHT30;70041;46.088;18.268;2023-07-08T03:25:32;18.26;65.31
80676;SHT30;70041;46.088;18.268;2023-07-08T03:27:57;18.23;67.20
80676;SHT30;70041;46.088;18.268;2023-07-08T03:30:23;18.29;66.08
80676;SHT30;70041;46.088;18.268;2023-07-08T03:32:48;18.33;66.75
80676;SHT30;70041;46.088;18.268;2023-07-08T03:35:14;18.30;66.71
80676;SHT30;70041;46.088;18.268;2023-07-08T03:37:41;18.31;67.31
80676;SHT30;70041;46.088;18.268;2023-07-08T03:40:08;18.24;67.55
80676;SHT30;70041;46.088;18.268;2023-07-08T03:42:34;18.21;67.56
80676;SHT30;70041;46.088;18.268;2023-07-08T03:45:00;18.09;68.65
80676;SHT30;70041;46.088;18.268;2023-07-08T03:47:25;18.00;69.45
80676;SHT30;70041;46.088;18.268;2023-07-08T03:49:51;17.93;69.44
80676;SHT30;70041;46.088;18.268;2023-07-08T03:52:17;17.90;69.11
80676;SHT30;70041;46.088;18.268;2023-07-08T03:54:44;17.94;69.70
80676;SHT30;70041;46.088;18.268;2023-07-08T03:57:09;17.92;69.09
80676;SHT30;70041;46.088;18.268;2023-07-08T03:59:35;17.97;69.38
80676;SHT30;70041;46.088;18.268;2023-07-08T04:02:00;18.00;68.94
80676;SHT30;70041;46.088;18.268;2023-07-08T04:04:25;17.97;70.16
80676;SHT30;70041;46.088;18.268;2023-07-08T04:06:51;17.89;69.63
80676;SHT30;70041;46.088;18.268;2023-07-08T04:09:16;17.80;70.23
80676;SHT30;70041;46.088;18.268;2023-07-08T04:11:42;17.70;71.04
80676;SHT30;70041;46.088;18.268;2023-07-08T04:14:09;17.68;72.23
80676;SHT30;70041;46.088;18.268;2023-07-08T04:16:56;17.68;71.73
80676;SHT30;70041;46.088;18.268;2023-07-08T04:19:23;17.75;71.49
80676;SHT30;70041;46.088;18.268;2023-07-08T04:21:49;17.79;71.95
80676;SHT30;70041;46.088;18.268;2023-07-08T04:24:16;17.79;72.90
80676;SHT30;70041;46.088;18.268;2023-07-08T04:26:43;17.82;72.55
80676;SHT30;70041;46.088;18.268;2023-07-08T04:29:17;17.82;71.70
80676;SHT30;70041;46.088;18.268;2023-07-08T04:31:43;17.85;72.23
80676;SHT30;70041;46.088;18.268;2023-07-08T04:34:09;17.83;72.69
80676;SHT30;70041;46.088;18.268;2023-07-08T04:36:35;17.85;73.07
80676;SHT30;70041;46.088;18.268;2023-07-08T04:39:01;17.85;72.56
80676;SHT30;70041;46.088;18.268;2023-07-08T04:41:27;17.86;73.27
80676;SHT30;70041;46.088;18.268;2023-07-08T04:43:53;17.89;73.44
80676;SHT30;70041;46.088;18.268;2023-07-08T04:49:10;18.24;70.40
80676;SHT30;70041;46.088;18.268;2023-07-08T04:51:37;18.23;71.33
80676;SHT30;70041;46.088;18.268;2023-07-08T04:54:03;18.26;71.71
80676;SHT30;70041;46.088;18.268;2023-07-08T04:59:09;18.43;71.52
80676;SHT30;70041;46.088;18.268;2023-07-08T05:01:35;18.50;71.44
80676;SHT30;70041;46.088;18.268;2023-07-08T05:04:01;18.58;71.04
80676;SHT30;70041;46.088;18.268;2023-07-08T05:06:27;18.62;71.11
80676;SHT30;70041;46.088;18.268;2023-07-08T05:08:53;18.72;72.77
80676;SHT30;70041;46.088;18.268;2023-07-08T05:11:18;18.79;72.02
80676;SHT30;70041;46.088;18.268;2023-07-08T05:13:43;18.81;72.32
80676;SHT30;70041;46.088;18.268;2023-07-08T05:16:09;18.89;71.99
80676;SHT30;70041;46.088;18.268;2023-07-08T05:18:34;19.01;71.92
80676;SHT30;70041;46.088;18.268;2023-07-08T05:21:01;19.12;71.79
80676;SHT30;70041;46.088;18.268;2023-07-08T05:23:28;19.25;71.06
80676;SHT30;70041;46.088;18.268;2023-07-08T05:25:54;19.36;71.44
80676;SHT30;70041;46.088;18.268;2023-07-08T05:28:20;19.43;71.89
80676;SHT30;70041;46.088;18.268;2023-07-08T05:30:46;19.52;73.14
80676;SHT30;70041;46.088;18.268;2023-07-08T05:33:12;19.59;72.41
80676;SHT30;70041;46.088;18.268;2023-07-08T05:35:37;19.67;72.16
80676;SHT30;70041;46.088;18.268;2023-07-08T05:38:03;19.74;72.44
80676;SHT30;70041;46.088;18.268;2023-07-08T05:40:28;19.84;70.49
80676;SHT30;70041;46.088;18.268;2023-07-08T05:42:54;19.94;70.81
80676;SHT30;70041;46.088;18.268;2023-07-08T05:45:19;20.07;69.11
80676;SHT30;70041;46.088;18.268;2023-07-08T05:47:44;20.15;68.59
80676;SHT30;70041;46.088;18.268;2023-07-08T05:50:10;20.28;61.13
80676;SHT30;70041;46.088;18.268;2023-07-08T05:52:35;20.38;63.14
80676;SHT30;70041;46.088;18.268;2023-07-08T05:55:01;20.53;55.45
80676;SHT30;70041;46.088;18.268;2023-07-08T05:57:26;20.88;55.79
80676;SHT30;70041;46.088;18.268;2023-07-08T05:59:51;21.03;56.26
80676;SHT30;70041;46.088;18.268;2023-07-08T06:02:18;21.00;55.43
80676;SHT30;70041;46.088;18.268;2023-07-08T06:04:45;21.07;57.85
80676;SHT30;70041;46.088;18.268;2023-07-08T06:07:10;21.30;53.94
80676;SHT30;70041;46.088;18.268;2023-07-08T06:09:35;21.43;54.60
80676;SHT30;70041;46.088;18.268;2023-07-08T06:12:01;21.43;55.74
80676;SHT30;70041;46.088;18.268;2023-07-08T06:14:27;21.41;59.02
80676;SHT30;70041;46.088;18.268;2023-07-08T06:16:52;21.37;60.21
80676;SHT30;70041;46.088;18.268;2023-07-08T06:19:20;21.51;57.98
80676;SHT30;70041;46.088;18.268;2023-07-08T06:21:45;21.71;54.47
80676;SHT30;70041;46.088;18.268;2023-07-08T06:24:10;21.75;55.81
80676;SHT30;70041;46.088;18.268;2023-07-08T06:26:36;21.92;58.76
80676;SHT30;70041;46.088;18.268;2023-07-08T06:29:01;21.94;56.55
80676;SHT30;70041;46.088;18.268;2023-07-08T06:31:28;21.91;57.26
80676;SHT30;70041;46.088;18.268;2023-07-08T06:33:53;22.00;60.15
80676;SHT30;70041;46.088;18.268;2023-07-08T06:36:18;22.08;55.10
80676;SHT30;70041;46.088;18.268;2023-07-08T06:38:44;22.18;54.15
80676;SHT30;70041;46.088;18.268;2023-07-08T06:41:09;22.29;58.99
80676;SHT30;70041;46.088;18.268;2023-07-08T06:43:34;22.32;56.97
80676;SHT30;70041;46.088;18.268;2023-07-08T06:46:00;22.36;56.89
80676;SHT30;70041;46.088;18.268;2023-07-08T06:48:25;22.45;55.98
80676;SHT30;70041;46.088;18.268;2023-07-08T06:50:51;22.60;53.70
80676;SHT30;70041;46.088;18.268;2023-07-08T06:53:16;22.67;54.79
80676;SHT30;70041;46.088;18.268;2023-07-08T06:55:44;22.73;53.57
80676;SHT30;70041;46.088;18.268;2023-07-08T06:58:09;22.86;52.15
80676;SHT30;70041;46.088;18.268;2023-07-08T07:00:35;22.92;52.36
80676;SHT30;70041;46.088;18.268;2023-07-08T07:03:00;23.02;49.70
80676;SHT30;70041;46.088;18.268;2023-07-08T07:05:26;23.13;51.33
80676;SHT30;70041;46.088;18.268;2023-07-08T07:07:51;23.15;53.52
80676;SHT30;70041;46.088;18.268;2023-07-08T07:10:18;23.08;50.18
80676;SHT30;70041;46.088;18.268;2023-07-08T07:12:44;23.21;52.38
80676;SHT30;70041;46.088;18.268;2023-07-08T07:15:09;23.21;53.83
80676;SHT30;70041;46.088;18.268;2023-07-08T07:17:35;23.35;51.23
80676;SHT30;70041;46.088;18.268;2023-07-08T07:20:01;23.41;50.85
80676;SHT30;70041;46.088;18.268;2023-07-08T07:22:27;23.50;52.73
80676;SHT30;70041;46.088;18.268;2023-07-08T07:24:53;23.51;52.00
80676;SHT30;70041;46.088;18.268;2023-07-08T07:27:19;23.48;53.57
80676;SHT30;70041;46.088;18.268;2023-07-08T07:29:46;23.51;53.16
80676;SHT30;70041;46.088;18.268;2023-07-08T07:32:13;23.65;51.75
80676;SHT30;70041;46.088;18.268;2023-07-08T07:34:39;23.81;48.65
80676;SHT30;70041;46.088;18.268;2023-07-08T07:37:06;23.95;52.98
80676;SHT30;70041;46.088;18.268;2023-07-08T07:39:35;23.94;53.19
80676;SHT30;70041;46.088;18.268;2023-07-08T07:42:00;23.98;50.49
80676;SHT30;70041;46.088;18.268;2023-07-08T07:44:26;23.88;49.16
80676;SHT30;70041;46.088;18.268;2023-07-08T07:46:52;23.78;47.01
80676;SHT30;70041;46.088;18.268;2023-07-08T07:49:18;23.94;50.05
80676;SHT30;70041;46.088;18.268;2023-07-08T07:51:43;24.13;51.64
80676;SHT30;70041;46.088;18.268;2023-07-08T07:54:09;24.22;52.11
80676;SHT30;70041;46.088;18.268;2023-07-08T07:56:35;24.17;48.85
80676;SHT30;70041;46.088;18.268;2023-07-08T07:59:00;24.06;49.99
80676;SHT30;70041;46.088;18.268;2023-07-08T08:01:26;24.23;48.82
80676;SHT30;70041;46.088;18.268;2023-07-08T08:03:51;24.46;48.80
80676;SHT30;70041;46.088;18.268;2023-07-08T08:06:17;24.55;47.03
80676;SHT30;70041;46.088;18.268;2023-07-08T08:09:04;24.68;46.22
80676;SHT30;70041;46.088;18.268;2023-07-08T08:11:29;24.63;47.81
80676;SHT30;70041;46.088;18.268;2023-07-08T08:13:56;24.64;47.96
80676;SHT30;70041;46.088;18.268;2023-07-08T08:16:21;24.73;47.80
80676;SHT30;70041;46.088;18.268;2023-07-08T08:18:47;24.78;48.17
80676;SHT30;70041;46.088;18.268;2023-07-08T08:21:12;24.74;47.56
80676;SHT30;70041;46.088;18.268;2023-07-08T08:23:38;24.67;48.41
80676;SHT30;70041;46.088;18.268;2023-07-08T08:26:04;24.73;45.75
80676;SHT30;70041;46.088;18.268;2023-07-08T08:28:29;24.78;49.29
80676;SHT30;70041;46.088;18.268;2023-07-08T08:30:54;24.97;47.88
80676;SHT30;70041;46.088;18.268;2023-07-08T08:33:20;24.97;45.63
80676;SHT30;70041;46.088;18.268;2023-07-08T08:35:46;25.19;47.49
80676;SHT30;70041;46.088;18.268;2023-07-08T08:38:11;25.35;48.84
80676;SHT30;70041;46.088;18.268;2023-07-08T08:40:39;25.17;45.82
80676;SHT30;70041;46.088;18.268;2023-07-08T08:43:18;25.31;47.19
80676;SHT30;70041;46.088;18.268;2023-07-08T08:46:08;25.46;48.94
80676;SHT30;70041;46.088;18.268;2023-07-08T08:48:48;25.42;46.71
80676;SHT30;70041;46.088;18.268;2023-07-08T08:51:15;25.53;48.86
80676;SHT30;70041;46.088;18.268;2023-07-08T08:53:41;25.73;48.56
80676;SHT30;70041;46.088;18.268;2023-07-08T08:56:14;25.88;45.58
80676;SHT30;70041;46.088;18.268;2023-07-08T08:58:46;25.79;44.76
80676;SHT30;70041;46.088;18.268;2023-07-08T09:01:15;25.72;43.18
80676;SHT30;70041;46.088;18.268;2023-07-08T09:04:00;25.76;46.47
80676;SHT30;70041;46.088;18.268;2023-07-08T09:06:32;25.88;43.62
80676;SHT30;70041;46.088;18.268;2023-07-08T09:09:03;25.88;43.59
80676;SHT30;70041;46.088;18.268;2023-07-08T09:12:10;25.96;40.84
80676;SHT30;70041;46.088;18.268;2023-07-08T09:14:38;25.83;44.73
80676;SHT30;70041;46.088;18.268;2023-07-08T09:19:58;26.03;41.55
80676;SHT30;70041;46.088;18.268;2023-07-08T09:22:46;26.06;43.98
80676;SHT30;70041;46.088;18.268;2023-07-08T09:25:24;26.16;41.91
80676;SHT30;70041;46.088;18.268;2023-07-08T09:27:51;26.10;45.06
80676;SHT30;70041;46.088;18.268;2023-07-08T09:30:19;26.36;49.30
80676;SHT30;70041;46.088;18.268;2023-07-08T09:32:46;26.52;42.66
80676;SHT30;70041;46.088;18.268;2023-07-08T09:35:27;26.45;40.39
80676;SHT30;70041;46.088;18.268;2023-07-08T09:37:54;26.52;43.55
80676;SHT30;70041;46.088;18.268;2023-07-08T09:40:29;26.55;39.66
80676;SHT30;70041;46.088;18.268;2023-07-08T09:43:03;26.43;41.45
80676;SHT30;70041;46.088;18.268;2023-07-08T09:45:44;26.68;45.72
80676;SHT30;70041;46.088;18.268;2023-07-08T09:48:34;26.74;40.56
80676;SHT30;70041;46.088;18.268;2023-07-08T09:51:00;26.75;40.59
80676;SHT30;70041;46.088;18.268;2023-07-08T09:53:26;26.65;40.97
80676;SHT30;70041;46.088;18.268;2023-07-08T09:55:53;26.65;39.74
80676;SHT30;70041;46.088;18.268;2023-07-08T09:58:24;26.58;40.12
80676;SHT30;70041;46.088;18.268;2023-07-08T10:00:55;26.61;40.51
80676;SHT30;70041;46.088;18.268;2023-07-08T10:03:26;26.70;39.62
80676;SHT30;70041;46.088;18.268;2023-07-08T10:05:54;26.75;37.78
80676;SHT30;70041;46.088;18.268;2023-07-08T10:08:23;26.72;38.14
80676;SHT30;70041;46.088;18.268;2023-07-08T10:10:58;26.82;37.35
80676;SHT30;70041;46.088;18.268;2023-07-08T10:13:40;27.01;37.41
80676;SHT30;70041;46.088;18.268;2023-07-08T10:16:15;27.12;37.12
80676;SHT30;70041;46.088;18.268;2023-07-08T10:18:41;27.16;39.97
80676;SHT30;70041;46.088;18.268;2023-07-08T10:23:53;27.74;43.93
80676;SHT30;70041;46.088;18.268;2023-07-08T10:26:30;27.94;40.35
80676;SHT30;70041;46.088;18.268;2023-07-08T10:48:14;29.97;33.78
80676;SHT30;70041;46.088;18.268;2023-07-08T10:56:40;32.43;32.19
80676;SHT30;70041;46.088;18.268;2023-07-08T11:02:15;33.74;31.20
80676;SHT30;70041;46.088;18.268;2023-07-08T11:07:39;33.53;31.32
80676;SHT30;70041;46.088;18.268;2023-07-08T11:10:20;32.43;31.98
80676;SHT30;70041;46.088;18.268;2023-07-08T11:12:50;31.70;28.86
80676;SHT30;70041;46.088;18.268;2023-07-08T11:15:22;31.38;34.51
80676;SHT30;70041;46.088;18.268;2023-07-08T11:18:02;30.96;33.68
80676;SHT30;70041;46.088;18.268;2023-07-08T11:23:15;30.82;34.80
80676;SHT30;70041;46.088;18.268;2023-07-08T11:25:46;30.96;37.14
80676;SHT30;70041;46.088;18.268;2023-07-08T11:28:18;30.84;34.59
80676;SHT30;70041;46.088;18.268;2023-07-08T11:30:46;30.63;34.04
80676;SHT30;70041;46.088;18.268;2023-07-08T11:33:13;31.00;30.81
80676;SHT30;70041;46.088;18.268;2023-07-08T11:35:48;31.00;32.95
80676;SHT30;70041;46.088;18.268;2023-07-08T11:38:20;31.89;35.29
80676;SHT30;70041;46.088;18.268;2023-07-08T11:40:58;33.08;33.35
80676;SHT30;70041;46.088;18.268;2023-07-08T11:43:28;33.17;30.75
80676;SHT30;70041;46.088;18.268;2023-07-08T11:45:56;32.28;31.77
80676;SHT30;70041;46.088;18.268;2023-07-08T11:48:29;31.85;35.83
80676;SHT30;70041;46.088;18.268;2023-07-08T11:50:57;31.60;35.64
80676;SHT30;70041;46.088;18.268;2023-07-08T11:56:00;31.21;37.18
80676;SHT30;70041;46.088;18.268;2023-07-08T11:58:31;31.31;38.45
80676;SHT30;70041;46.088;18.268;2023-07-08T12:01:05;31.33;37.53
80676;SHT30;70041;46.088;18.268;2023-07-08T12:03:51;31.34;31.69
80676;SHT30;70041;46.088;18.268;2023-07-08T12:08:53;31.29;29.52
80676;SHT30;70041;46.088;18.268;2023-07-08T12:11:19;31.55;29.30
80676;SHT30;70041;46.088;18.268;2023-07-08T12:13:49;32.39;28.07
80676;SHT30;70041;46.088;18.268;2023-07-08T12:16:20;32.96;29.18
80676;SHT30;70041;46.088;18.268;2023-07-08T12:18:47;33.86;28.61
80676;SHT30;70041;46.088;18.268;2023-07-08T12:21:13;35.25;25.20
80676;SHT30;70041;46.088;18.268;2023-07-08T12:23:45;36.02;25.93
80676;SHT30;70041;46.088;18.268;2023-07-08T12:26:11;36.19;27.63
80676;SHT30;70041;46.088;18.268;2023-07-08T12:28:37;35.45;28.41
80676;SHT30;70041;46.088;18.268;2023-07-08T12:31:15;36.09;28.72
80676;SHT30;70041;46.088;18.268;2023-07-08T12:33:41;36.40;24.99
80676;SHT30;70041;46.088;18.268;2023-07-08T12:36:10;36.41;25.73
80676;SHT30;70041;46.088;18.268;2023-07-08T12:38:40;36.23;26.78
80676;SHT30;70041;46.088;18.268;2023-07-08T12:41:22;36.78;23.63
80676;SHT30;70041;46.088;18.268;2023-07-08T12:43:49;36.97;26.40
80676;SHT30;70041;46.088;18.268;2023-07-08T12:46:17;37.75;24.08
80676;SHT30;70041;46.088;18.268;2023-07-08T12:48:43;37.46;23.42
80676;SHT30;70041;46.088;18.268;2023-07-08T12:51:19;35.96;26.40
80676;SHT30;70041;46.088;18.268;2023-07-08T12:53:49;34.87;29.83
80676;SHT30;70041;46.088;18.268;2023-07-08T12:56:15;36.26;28.50
80676;SHT30;70041;46.088;18.268;2023-07-08T12:58:44;35.07;27.00
80676;SHT30;70041;46.088;18.268;2023-07-08T13:01:16;35.68;30.93
80676;SHT30;70041;46.088;18.268;2023-07-08T13:03:43;36.08;29.96
80676;SHT30;70041;46.088;18.268;2023-07-08T13:06:11;37.37;27.76
80676;SHT30;70041;46.088;18.268;2023-07-08T13:08:38;36.29;25.63
80676;SHT30;70041;46.088;18.268;2023-07-08T13:11:05;35.39;25.18
80676;SHT30;70041;46.088;18.268;2023-07-08T13:13:38;36.10;26.83
80676;SHT30;70041;46.088;18.268;2023-07-08T13:16:04;35.96;26.18
80676;SHT30;70041;46.088;18.268;2023-07-08T13:18:33;36.46;24.95
80676;SHT30;70041;46.088;18.268;2023-07-08T13:21:01;37.21;25.07
80676;SHT30;70041;46.088;18.268;2023-07-08T13:23:27;38.08;26.70
80676;SHT30;70041;46.088;18.268;2023-07-08T13:25:54;38.57;26.28
80676;SHT30;70041;46.088;18.268;2023-07-08T13:28:26;36.57;27.25
80676;SHT30;70041;46.088;18.268;2023-07-08T13:31:19;37.61;26.62
80676;SHT30;70041;46.088;18.268;2023-07-08T13:33:55;38.39;26.02
80676;SHT30;70041;46.088;18.268;2023-07-08T13:36:33;38.40;23.82
80676;SHT30;70041;46.088;18.268;2023-07-08T13:39:02;38.80;22.90
80676;SHT30;70041;46.088;18.268;2023-07-08T13:41:30;36.13;27.59
80676;SHT30;70041;46.088;18.268;2023-07-08T13:43:55;37.00;24.83
80676;SHT30;70041;46.088;18.268;2023-07-08T13:47:00;38.66;23.70
80676;SHT30;70041;46.088;18.268;2023-07-08T13:54:49;36.62;25.87
80676;SHT30;70041;46.088;18.268;2023-07-08T13:57:17;37.29;23.78
80676;SHT30;70041;46.088;18.268;2023-07-08T13:59:43;36.54;26.57
80676;SHT30;70041;46.088;18.268;2023-07-08T14:02:29;34.27;30.17
80676;SHT30;70041;46.088;18.268;2023-07-08T14:04:57;35.28;26.23
80676;SHT30;70041;46.088;18.268;2023-07-08T14:07:26;37.41;26.51
80676;SHT30;70041;46.088;18.268;2023-07-08T14:09:52;38.08;23.69
80676;SHT30;70041;46.088;18.268;2023-07-08T14:12:19;37.73;23.62
80676;SHT30;70041;46.088;18.268;2023-07-08T14:14:45;36.95;26.47
80676;SHT30;70041;46.088;18.268;2023-07-08T14:17:12;35.04;29.42
80676;SHT30;70041;46.088;18.268;2023-07-08T14:19:39;34.10;30.98
80676;SHT30;70041;46.088;18.268;2023-07-08T14:22:19;34.73;30.58
80676;SHT30;70041;46.088;18.268;2023-07-08T14:24:46;36.46;27.14
80676;SHT30;70041;46.088;18.268;2023-07-08T14:27:11;38.12;27.86
80676;SHT30;70041;46.088;18.268;2023-07-08T14:29:39;37.82;25.97
80676;SHT30;70041;46.088;18.268;2023-07-08T14:32:12;38.80;26.88
80676;SHT30;70041;46.088;18.268;2023-07-08T14:34:38;39.39;25.99
80676;SHT30;70041;46.088;18.268;2023-07-08T14:37:10;39.32;25.26
80676;SHT30;70041;46.088;18.268;2023-07-08T14:39:38;39.29;24.32
80676;SHT30;70041;46.088;18.268;2023-07-08T14:42:05;39.23;24.25
80676;SHT30;70041;46.088;18.268;2023-07-08T14:44:35;39.28;24.40
80676;SHT30;70041;46.088;18.268;2023-07-08T14:47:00;39.07;24.44
80676;SHT30;70041;46.088;18.268;2023-07-08T14:49:26;39.56;25.07
80676;SHT30;70041;46.088;18.268;2023-07-08T14:51:52;37.79;25.47
80676;SHT30;70041;46.088;18.268;2023-07-08T14:54:18;37.06;27.08
80676;SHT30;70041;46.088;18.268;2023-07-08T14:56:45;38.60;23.19
80676;SHT30;70041;46.088;18.268;2023-07-08T14:59:15;39.56;22.71
80676;SHT30;70041;46.088;18.268;2023-07-08T15:01:43;39.92;23.70
80676;SHT30;70041;46.088;18.268;2023-07-08T15:04:13;40.04;23.66
80676;SHT30;70041;46.088;18.268;2023-07-08T15:06:41;40.14;23.50
80676;SHT30;70041;46.088;18.268;2023-07-08T15:09:07;40.07;22.24
80676;SHT30;70041;46.088;18.268;2023-07-08T15:11:33;40.44;21.69
80676;SHT30;70041;46.088;18.268;2023-07-08T15:14:00;39.69;21.74
80676;SHT30;70041;46.088;18.268;2023-07-08T15:16:26;40.34;21.59
80676;SHT30;70041;46.088;18.268;2023-07-08T15:18:51;40.68;21.37
80676;SHT30;70041;46.088;18.268;2023-07-08T15:21:17;40.85;20.88
80676;SHT30;70041;46.088;18.268;2023-07-08T15:23:43;41.09;20.17
80676;SHT30;70041;46.088;18.268;2023-07-08T15:26:12;40.96;19.88
80676;SHT30;70041;46.088;18.268;2023-07-08T15:28:48;40.57;20.33
80676;SHT30;70041;46.088;18.268;2023-07-08T15:31:16;40.51;21.43
80676;SHT30;70041;46.088;18.268;2023-07-08T15:33:43;40.65;21.13
80676;SHT30;70041;46.088;18.268;2023-07-08T15:36:10;40.21;21.00
80676;SHT30;70041;46.088;18.268;2023-07-08T15:38:36;39.99;21.00
80676;SHT30;70041;46.088;18.268;2023-07-08T15:41:02;39.59;23.76
80676;SHT30;70041;46.088;18.268;2023-07-08T15:43:29;39.41;22.74
80676;SHT30;70041;46.088;18.268;2023-07-08T15:45:55;39.29;22.31
80676;SHT30;70041;46.088;18.268;2023-07-08T15:48:20;39.07;22.96
80676;SHT30;70041;46.088;18.268;2023-07-08T15:50:46;37.43;26.60
80676;SHT30;70041;46.088;18.268;2023-07-08T15:53:14;36.27;26.91
80676;SHT30;70041;46.088;18.268;2023-07-08T15:55:42;34.66;28.08
80676;SHT30;70041;46.088;18.268;2023-07-08T15:58:27;33.48;29.27
80676;SHT30;70041;46.088;18.268;2023-07-08T16:00:54;32.70;30.98
80676;SHT30;70041;46.088;18.268;2023-07-08T16:03:24;32.49;32.60
80676;SHT30;70041;46.088;18.268;2023-07-08T16:05:53;32.15;34.10
80676;SHT30;70041;46.088;18.268;2023-07-08T16:08:19;31.82;36.68
80676;SHT30;70041;46.088;18.268;2023-07-08T16:10:49;31.51;31.28
80676;SHT30;70041;46.088;18.268;2023-07-08T16:13:20;31.27;31.03
80676;SHT30;70041;46.088;18.268;2023-07-08T16:15:47;30.91;31.08
80676;SHT30;70041;46.088;18.268;2023-07-08T16:18:13;30.63;34.26
80676;SHT30;70041;46.088;18.268;2023-07-08T16:20:38;30.49;34.81